Bensdorf, Germany

3:50 PM CEST on April 24, 2017 (GMT +0200)
OT Briest Schwarzer Weg | | Change Station

Elev 105 ft 52.44 °N, 12.43 °E | Updated 11 seconds ago

Mostly Cloudy
Mostly Cloudy
58.1 °F
Feels Like 58.1 °F
N
2.5
Wind Variable Wind from SW
Gusts 4.9 mph

Today
High -- | Low -- °F
--% Chance of Precip.
Yesterday
High -- | Low -- °F
Precip. -- in
Pressure 29.86 in
Visibility -9999.0 miles
Clouds
Dew Point 34 °F
Humidity 41%
Rainfall 0.00 in
Snow Depth Not available.
5:53 AM 8:25 PM
Waning Crescent, 5% visible
METAR EDDT 241320Z 23015G25KT 200V260 CAVOK 14/01 Q1011 NOSIG
Pressure 29.86 in
Visibility -9999.0 miles
Clouds
Dew Point 34 °F
Humidity 41%
Rainfall 0.00 in
Snow Depth Not available.
5:53 AM 8:25 PM
Waning Crescent, 5% visible
METAR EDDT 241320Z 23015G25KT 200V260 CAVOK 14/01 Q1011 NOSIG

Get Severe Weather Alerts

Thanks for signing up!

Be on the lookout for a verification email in your inbox.

You'll start receiving the daily forecast at 8 AM.

×

10-Day Weather Forecast

×

Almanac

Astronomy

Apr. 24, 2017 Rise Set
Actual Time
Civil Twilight
Nautical Twilight
Astronomical Twilight
Moon
Length of Visible Light
Length of Day
Tomorrow will be .
, % of the Moon is Illuminated

Today's Extremes

Country Highs Country Lows

Community

WunderPhotos

WunderBlog® & News

Nearby

Air Quality

  Air Quality AQ Index Pollutant
Not available.

Snow Depth

Station Depth Elevation

Earthquake Activity

City Distance Mag. Time & Date
Minimum magnitude displayed is 2.5.

Coastal Water Temperatures

Place Temperature

Stations

Nearby Weather Stations

Station Location Temp. Windchill Dew Point Humidity Wind Precip. Elev Updated Type